Colter Bay, Wyoming
Current Conditions -  °F | °C
As of 10:45 AM on Wednesday 28 Jan 2015 (Local Time) from KJAC Reporting Station
Broken Clouds Broken Clouds  
Wind Chill: 37°   Ceiling: 6000
Heat Index: 37°   Visibility: 10mi
Dew Point: 34°   Wind: 0mph
Humidity: 87%   Direction: NA
Pressure: 30.23"   Gusts: NA
Location:  43.9295°N, 110.33°W
Report Text: KJAC 281745Z 00000KT 10SM FEW042 BKN060 03/01 A3023
Loading
Personal Weather Stations






























Interactive Weather Map New forecast layout! Learn more

10-Day Weather Forecast

Advertisements
Track Severe Weather on mobile